Austin, TX (78736)

5:55 PM CDT on September 25, 2016 (GMT -0500)
The Natural Gardener | | Change Station

Elev 967 ft 30.26 °N, 97.89 °W | Updated 6 seconds ago

Light Thunderstorms and Rain
Light Thunderstorm Rain
70.9 °F
Feels Like 70.9 °F
N
0.4
Wind Variable Wind from NNW
Gusts 3.1 mph

Today
High -- | Low -- °F
--% Chance of Precip.
Yesterday
High -- | Low -- °F
Precip. -- in
Pressure 29.98 in
Visibility 10.0 miles
Clouds Scattered Clouds 4700 ft
Scattered Clouds 10000 ft
Mostly Cloudy 12000 ft
Dew Point 68 °F
Humidity 90%
Rainfall 0.50 in
Snow Depth Not available.
7:21 AM 7:23 PM
Waning Crescent, 24% visible
METAR KATT 252251Z AUTO 36006KT 10SM -TSRA SCT047 SCT100 BKN120 22/22 A3001 RMK AO2 SLP152 P0073 T02220217
Pressure 29.98 in
Visibility 10.0 miles
Clouds Scattered Clouds 4700 ft
Scattered Clouds 10000 ft
Mostly Cloudy 12000 ft
Dew Point 68 °F
Humidity 90%
Rainfall 0.50 in
Snow Depth Not available.
7:21 AM 7:23 PM
Waning Crescent, 24% visible
METAR KATT 252251Z AUTO 36006KT 10SM -TSRA SCT047 SCT100 BKN120 22/22 A3001 RMK AO2 SLP152 P0073 T02220217

10-Day Weather Forecast

Almanac

Astronomy

Sep. 25, 2016 Rise Set
Actual Time
Civil Twilight
Nautical Twilight
Astronomical Twilight
Moon
Length of Visible Light
Length of Day
Tomorrow will be .
, % of the Moon is Illuminated

Today's Extremes

State Highs State Lows

Community

WunderPhotos

Upload Photos

1,941,761 photos uploaded!

WunderBlog® & News

Nearby

Air Quality

  Air Quality AQ Index Pollutant
Not available.

Snow Depth

Station Depth Elevation

Earthquake Activity

City Distance Mag. Time & Date
Minimum magnitude displayed is 2.5.

Coastal Water Temperatures

Place Temperature

Stations

Nearby Weather Stations

Station Location Temp. Windchill Dew Point Humidity Wind Precip. Elev Updated Type
                   

Watches & Warnings

There are currently no watches in effect.